createdAt,value
2023-04-26T00:01:30.266Z,99883.93
2023-04-26T00:04:16.599Z,99883.40
2023-04-26T00:07:05.309Z,99880.31
2023-04-26T00:09:37.059Z,99882.69
2023-04-26T00:12:12.243Z,99879.77
2023-04-26T00:14:45.863Z,99882.30
2023-04-26T00:17:20.182Z,99884.52
2023-04-26T00:20:10.943Z,99884.73
2023-04-26T00:22:43.165Z,99888.33
2023-04-26T00:25:37.681Z,99887.88
2023-04-26T00:28:23.186Z,99892.67
2023-04-26T00:31:14.218Z,99864.67
2023-04-26T00:33:44.680Z,99889.90
2023-04-26T00:36:38.704Z,99893.21
2023-04-26T00:39:10.605Z,99893.55
2023-04-26T00:41:45.801Z,99897.06
2023-04-26T00:44:23.284Z,99897.29
2023-04-26T00:47:03.899Z,99902.23
2023-04-26T00:49:58.675Z,99905.46
2023-04-26T00:52:41.985Z,99907.91
2023-04-26T00:56:04.273Z,99909.44
2023-04-26T00:58:58.921Z,99914.99
2023-04-26T01:01:29.978Z,99917.04
2023-04-26T01:04:13.358Z,99915.69
2023-04-26T01:06:46.304Z,99916.67
2023-04-26T01:09:21.928Z,99916.50
2023-04-26T01:11:56.729Z,99915.80
2023-04-26T01:14:36.819Z,99920.05
2023-04-26T01:17:10.014Z,99918.51
2023-04-26T01:19:53.080Z,99918.77
2023-04-26T01:22:28.863Z,99921.94
2023-04-26T01:25:13.333Z,99924.00
2023-04-26T01:27:52.106Z,99929.59
2023-04-26T01:30:31.996Z,99929.98
2023-04-26T01:33:17.675Z,99927.04
2023-04-26T01:35:46.773Z,99933.11
2023-04-26T01:38:18.129Z,99929.89
2023-04-26T01:40:52.670Z,99934.61
2023-04-26T01:43:36.096Z,99935.02
2023-04-26T01:46:10.241Z,99934.98
2023-04-26T01:48:55.045Z,99934.55
2023-04-26T01:51:34.488Z,99920.05
2023-04-26T01:54:08.902Z,99940.23
2023-04-26T01:56:51.754Z,99942.91
2023-04-26T01:59:23.782Z,99941.14
2023-04-26T02:01:55.582Z,99946.87
2023-04-26T02:04:31.023Z,99943.43
2023-04-26T02:07:23.027Z,99944.79
2023-04-26T02:10:03.596Z,99945.98
2023-04-26T02:12:38.988Z,99947.67
2023-04-26T02:15:16.446Z,99944.92
2023-04-26T02:17:49.932Z,99937.48
2023-04-26T02:20:52.191Z,99950.98
2023-04-26T02:23:26.838Z,99949.73
2023-04-26T02:26:08.127Z,99948.48
2023-04-26T02:28:59.120Z,99946.54
2023-04-26T02:31:34.524Z,99940.63
2023-04-26T02:34:10.534Z,99943.36
2023-04-26T02:36:57.277Z,99943.89
2023-04-26T02:39:48.537Z,99939.42
2023-04-26T02:42:29.735Z,99936.71
2023-04-26T02:45:05.533Z,99945.63
2023-04-26T02:47:43.318Z,99949.58
2023-04-26T02:50:22.818Z,99949.79
2023-04-26T02:52:59.280Z,99951.38
2023-04-26T02:55:41.731Z,99950.61
2023-04-26T02:58:22.666Z,99956.03
2023-04-26T03:01:09.042Z,99953.75
2023-04-26T03:03:52.153Z,99951.70
2023-04-26T03:06:30.121Z,99953.95
2023-04-26T03:09:09.221Z,99955.16
2023-04-26T03:11:53.396Z,99955.23
2023-04-26T03:14:40.293Z,99962.67
2023-04-26T03:17:12.463Z,99964.86
2023-04-26T03:19:59.957Z,99970.17
2023-04-26T03:22:47.820Z,99974.58
2023-04-26T03:25:17.228Z,99977.73
2023-04-26T03:28:01.780Z,99974.66
2023-04-26T03:30:33.747Z,99976.77
2023-04-26T03:33:09.743Z,99979.77
2023-04-26T03:35:47.013Z,99986.30
2023-04-26T03:38:18.441Z,99986.45
2023-04-26T03:41:12.777Z,99984.23
2023-04-26T03:43:41.827Z,99990.45
2023-04-26T03:46:13.630Z,99986.40
2023-04-26T03:48:56.194Z,99987.27
2023-04-26T03:51:33.042Z,99996.00
2023-04-26T03:54:02.128Z,100002.39
2023-04-26T03:56:33.597Z,100007.56
2023-04-26T03:59:10.484Z,100006.77
2023-04-26T04:02:02.309Z,100005.08
2023-04-26T04:04:32.660Z,100008.94
2023-04-26T04:07:01.808Z,100009.38
2023-04-26T04:09:30.302Z,100012.06
2023-04-26T04:11:58.978Z,100016.87
2023-04-26T04:14:28.284Z,100020.05
2023-04-26T04:16:57.374Z,100026.30
2023-04-26T04:19:26.474Z,100029.12
2023-04-26T04:21:57.726Z,100029.55
2023-04-26T04:24:37.690Z,100029.96
2023-04-26T04:27:09.826Z,100028.61
2023-04-26T04:29:42.934Z,100033.27
2023-04-26T04:32:20.735Z,100024.55
2023-04-26T04:34:54.395Z,100022.80
2023-04-26T04:37:23.331Z,100034.38
2023-04-26T04:39:56.199Z,100036.59
2023-04-26T04:42:31.125Z,100025.89
2023-04-26T04:45:00.536Z,100037.05
2023-04-26T04:47:30.664Z,100043.64
2023-04-26T04:49:59.532Z,100045.18
2023-04-26T04:52:33.476Z,100048.66
2023-04-26T04:55:02.842Z,100054.73
2023-04-26T04:57:32.741Z,100056.54
2023-04-26T05:00:12.511Z,100057.64
2023-04-26T05:02:50.093Z,100058.83
2023-04-26T05:05:21.770Z,100055.14
2023-04-26T05:07:56.897Z,100061.13
2023-04-26T05:10:38.377Z,100058.73
2023-04-26T05:13:18.531Z,100059.41
2023-04-26T05:15:51.554Z,100061.38
2023-04-26T05:18:24.290Z,100061.40
2023-04-26T05:20:59.447Z,100066.55
2023-04-26T05:23:43.199Z,100066.11
2023-04-26T05:26:19.471Z,100064.05
2023-04-26T05:29:18.736Z,100069.54
2023-04-26T05:32:02.919Z,100072.72
2023-04-26T05:34:59.685Z,100076.58
2023-04-26T05:37:34.674Z,100075.35
2023-04-26T05:40:12.393Z,100083.66
2023-04-26T05:42:44.140Z,100076.02
2023-04-26T05:45:16.410Z,100077.11
2023-04-26T05:47:51.545Z,100078.73
2023-04-26T05:50:24.027Z,100084.66
2023-04-26T05:52:53.125Z,100083.96
2023-04-26T05:55:45.903Z,100077.60
2023-04-26T05:58:14.825Z,100080.47
2023-04-26T06:00:43.965Z,100082.71
2023-04-26T06:03:16.854Z,100085.70
2023-04-26T06:05:46.808Z,100083.52
2023-04-26T06:08:15.535Z,100084.13
2023-04-26T06:10:48.029Z,100087.34
2023-04-26T06:13:17.202Z,100096.08
2023-04-26T06:15:46.099Z,100093.97
2023-04-26T06:18:21.101Z,100093.45
2023-04-26T06:20:50.235Z,100097.44
2023-04-26T06:23:24.279Z,100102.38
2023-04-26T06:25:55.690Z,100104.09
2023-04-26T06:28:28.267Z,100103.95
2023-04-26T06:31:03.057Z,100105.85
2023-04-26T06:33:39.715Z,100110.24
2023-04-26T06:36:13.589Z,100107.23
2023-04-26T06:38:47.310Z,100102.90
2023-04-26T06:41:19.756Z,100106.13
2023-04-26T06:43:58.788Z,100098.98
2023-04-26T06:46:38.491Z,100114.92
2023-04-26T06:49:11.709Z,100109.16
2023-04-26T06:51:40.955Z,100105.74
2023-04-26T06:54:12.696Z,100105.49
2023-04-26T06:56:42.069Z,100106.71
2023-04-26T06:59:11.323Z,100107.57
2023-04-26T07:01:45.937Z,100101.89
2023-04-26T07:04:46.243Z,100112.61
2023-04-26T07:07:24.342Z,100108.20
2023-04-26T07:09:56.497Z,100126.80
2023-04-26T07:12:25.712Z,100110.13
2023-04-26T07:14:54.786Z,100111.40
2023-04-26T07:17:31.247Z,100108.94
2023-04-26T07:20:03.302Z,100109.73
2023-04-26T07:22:34.878Z,100108.90
2023-04-26T07:25:07.197Z,100112.16
2023-04-26T07:27:36.460Z,100109.50
2023-04-26T07:30:09.154Z,100116.47
2023-04-26T07:32:46.867Z,100113.74
2023-04-26T07:35:22.189Z,100117.96
2023-04-26T07:37:53.941Z,100122.88
2023-04-26T07:40:29.467Z,100121.94
2023-04-26T07:43:01.652Z,100119.11
2023-04-26T07:45:36.830Z,100121.14
2023-04-26T07:48:06.717Z,100124.18
2023-04-26T07:50:40.727Z,100128.10
2023-04-26T07:53:14.452Z,100121.59
2023-04-26T07:55:43.299Z,100126.09
2023-04-26T07:58:14.958Z,100124.55
2023-04-26T08:00:43.750Z,100122.95
2023-04-26T08:03:17.156Z,100126.00
2023-04-26T08:05:46.384Z,100124.27
2023-04-26T08:08:17.190Z,100128.17
2023-04-26T08:10:49.648Z,100122.89
2023-04-26T08:13:27.035Z,100123.52
2023-04-26T08:16:03.296Z,100126.98
2023-04-26T08:18:47.867Z,100138.75
2023-04-26T08:21:21.791Z,100131.48
2023-04-26T08:24:02.755Z,100133.20
2023-04-26T08:26:34.190Z,100130.57
2023-04-26T08:29:08.025Z,100133.54
2023-04-26T08:31:41.985Z,100136.98
2023-04-26T08:34:14.281Z,100138.59
2023-04-26T08:36:56.989Z,100133.89
2023-04-26T08:39:42.489Z,100115.05
2023-04-26T08:42:20.388Z,100139.76
2023-04-26T08:44:52.491Z,100143.51
2023-04-26T08:47:47.498Z,100146.66
2023-04-26T08:50:23.885Z,100151.73
2023-04-26T08:53:08.791Z,100147.27
2023-04-26T08:55:42.992Z,100143.64
2023-04-26T08:58:24.111Z,100150.34
2023-04-26T09:00:53.469Z,100153.70
2023-04-26T09:03:27.132Z,100152.63
2023-04-26T09:05:56.927Z,100148.61
2023-04-26T09:08:32.079Z,100148.25
2023-04-26T09:11:03.923Z,100153.26
2023-04-26T09:13:33.479Z,100147.70
2023-04-26T09:16:16.357Z,100147.91
2023-04-26T09:18:55.115Z,100148.23
2023-04-26T09:21:25.330Z,100149.96
2023-04-26T09:24:04.501Z,100151.39
2023-04-26T09:26:33.544Z,100152.14
2023-04-26T09:29:22.448Z,100150.97
2023-04-26T09:31:55.866Z,100145.98
2023-04-26T09:34:24.731Z,100145.11
2023-04-26T09:37:02.843Z,100140.09
2023-04-26T09:39:38.210Z,100139.50
2023-04-26T09:42:08.247Z,100141.01
2023-04-26T09:44:38.218Z,100146.66
2023-04-26T09:47:10.261Z,100145.10
2023-04-26T09:49:50.900Z,100142.99
2023-04-26T09:52:20.278Z,100139.91
2023-04-26T09:54:53.507Z,100136.81
2023-04-26T09:57:23.877Z,100133.50
2023-04-26T09:59:56.662Z,100129.27
2023-04-26T10:02:30.175Z,100133.55
2023-04-26T10:05:01.357Z,100137.01
2023-04-26T10:07:31.188Z,100134.91
2023-04-26T10:10:04.218Z,100133.36
2023-04-26T10:12:37.072Z,100133.70
2023-04-26T10:15:09.924Z,100138.32
2023-04-26T10:17:43.589Z,100134.55
2023-04-26T10:20:15.516Z,100137.11
2023-04-26T10:22:51.401Z,100139.52
2023-04-26T10:25:20.383Z,100135.48
2023-04-26T10:27:52.875Z,100132.98
2023-04-26T10:30:24.091Z,100137.02
2023-04-26T10:32:58.442Z,100137.23
2023-04-26T10:35:38.195Z,100132.06
2023-04-26T10:38:16.874Z,100131.31
2023-04-26T10:40:49.051Z,100133.52
2023-04-26T10:43:18.541Z,100131.13
2023-04-26T10:45:48.216Z,100134.90
2023-04-26T10:48:33.235Z,100137.07
2023-04-26T10:51:02.031Z,100138.14
2023-04-26T10:53:35.009Z,100138.96
2023-04-26T10:56:04.313Z,100148.13
2023-04-26T10:58:41.191Z,100140.34
2023-04-26T11:01:21.210Z,100141.57
2023-04-26T11:03:59.761Z,100143.48
2023-04-26T11:06:49.353Z,100136.13
2023-04-26T11:09:43.531Z,100155.84
2023-04-26T11:12:25.411Z,100154.02
2023-04-26T11:14:56.952Z,100155.64
2023-04-26T11:17:28.227Z,100155.86
2023-04-26T11:19:57.602Z,100150.73
2023-04-26T11:22:30.188Z,100151.19
2023-04-26T11:25:03.534Z,100145.02
2023-04-26T11:27:32.290Z,100135.59
2023-04-26T11:30:08.048Z,100147.98
2023-04-26T11:32:36.851Z,100140.78
2023-04-26T11:35:09.599Z,100151.46
2023-04-26T11:37:38.575Z,100158.20
2023-04-26T11:40:19.858Z,100154.94
2023-04-26T11:42:49.060Z,100162.81
2023-04-26T11:45:18.071Z,100162.27
2023-04-26T11:47:47.909Z,100160.91
2023-04-26T11:50:26.836Z,100155.18
2023-04-26T11:52:57.420Z,100158.20
2023-04-26T11:55:34.399Z,100160.95
2023-04-26T11:58:11.848Z,100161.45
2023-04-26T12:01:09.775Z,100172.15
2023-04-26T12:03:39.395Z,100183.17
2023-04-26T12:06:10.237Z,100196.55
2023-04-26T12:08:40.165Z,100190.15
2023-04-26T12:11:30.862Z,100187.06
2023-04-26T12:14:00.658Z,100181.27
2023-04-26T12:16:33.074Z,100182.43
2023-04-26T12:19:06.917Z,100181.09
2023-04-26T12:21:47.289Z,100172.14
2023-04-26T12:24:34.690Z,100167.84
2023-04-26T12:27:07.033Z,100166.77
2023-04-26T12:29:44.081Z,100162.45
2023-04-26T12:32:29.621Z,100165.54
2023-04-26T12:34:58.824Z,100160.77
2023-04-26T12:37:30.611Z,100161.19
2023-04-26T12:39:59.904Z,100157.04
2023-04-26T12:42:28.793Z,100159.89
2023-04-26T12:45:00.669Z,100163.34
2023-04-26T12:47:32.282Z,100166.84
2023-04-26T12:50:01.461Z,100164.05
2023-04-26T12:52:31.016Z,100158.73
2023-04-26T12:55:05.332Z,100170.80
2023-04-26T12:57:35.244Z,100182.59
2023-04-26T13:00:10.137Z,100192.14
2023-04-26T13:02:47.441Z,100194.42
2023-04-26T13:05:19.841Z,100207.61
2023-04-26T13:08:09.028Z,100210.65
2023-04-26T13:10:38.124Z,100217.58
2023-04-26T13:13:42.980Z,100203.02
2023-04-26T13:16:17.223Z,100201.11
2023-04-26T13:18:49.222Z,100197.73
2023-04-26T13:21:26.037Z,100195.85
2023-04-26T13:23:55.090Z,100188.44
2023-04-26T13:26:28.015Z,100191.79
2023-04-26T13:28:56.790Z,100197.37
2023-04-26T13:31:34.907Z,100191.65
2023-04-26T13:34:11.344Z,100204.73
2023-04-26T13:36:40.223Z,100206.36
2023-04-26T13:39:10.339Z,100201.66
2023-04-26T13:41:42.443Z,100203.58
2023-04-26T13:44:14.376Z,100202.17
2023-04-26T13:46:43.662Z,100204.91
2023-04-26T13:49:15.231Z,100202.08
2023-04-26T13:51:48.425Z,100207.91
2023-04-26T13:54:17.610Z,100204.95
2023-04-26T13:56:46.479Z,100211.05
2023-04-26T13:59:15.296Z,100210.53
2023-04-26T14:01:47.427Z,100205.91
2023-04-26T14:04:28.521Z,100201.54
2023-04-26T14:07:02.752Z,100204.84
2023-04-26T14:09:52.331Z,100206.45
2023-04-26T14:12:31.870Z,100208.54
2023-04-26T14:15:05.858Z,100217.23
2023-04-26T14:17:35.458Z,100217.42
2023-04-26T14:20:15.231Z,100220.69
2023-04-26T14:22:49.849Z,100224.20
2023-04-26T14:25:19.579Z,100226.60
2023-04-26T14:27:49.120Z,100221.80
2023-04-26T14:30:17.742Z,100221.02
2023-04-26T14:32:46.702Z,100218.72
2023-04-26T14:35:15.834Z,100224.11
2023-04-26T14:37:44.753Z,100223.58
2023-04-26T14:40:14.132Z,100236.15
2023-04-26T14:42:46.348Z,100241.55
2023-04-26T14:45:15.927Z,100252.27
2023-04-26T14:47:45.419Z,100245.61
2023-04-26T14:50:15.584Z,100242.05
2023-04-26T14:52:44.557Z,100241.13
2023-04-26T14:55:20.397Z,100239.08
2023-04-26T14:57:53.000Z,100238.39
2023-04-26T15:00:23.347Z,100235.78
2023-04-26T15:02:52.996Z,100234.65
2023-04-26T15:05:25.072Z,100234.04
2023-04-26T15:07:57.239Z,100225.42
2023-04-26T15:10:36.929Z,100224.89
2023-04-26T15:13:08.127Z,100224.59
2023-04-26T15:15:38.214Z,100225.79
2023-04-26T15:18:11.752Z,100227.23
2023-04-26T15:20:42.343Z,100229.20
2023-04-26T15:23:11.669Z,100229.19
2023-04-26T15:25:41.047Z,100223.43
2023-04-26T15:28:10.089Z,100224.40
2023-04-26T15:30:40.739Z,100222.58
2023-04-26T15:33:13.062Z,100225.54
2023-04-26T15:35:41.951Z,100229.17
2023-04-26T15:38:14.748Z,100231.63
2023-04-26T15:40:46.683Z,100235.67
2023-04-26T15:43:21.215Z,100239.47
2023-04-26T15:46:01.190Z,100242.58
2023-04-26T15:48:36.781Z,100249.98
2023-04-26T15:51:14.302Z,100261.66
2023-04-26T15:53:50.241Z,100243.10
2023-04-26T15:56:19.910Z,100258.81
2023-04-26T15:58:48.786Z,100252.98
2023-04-26T16:01:19.024Z,100248.76
2023-04-26T16:03:51.424Z,100248.16
2023-04-26T16:06:20.944Z,100242.99
2023-04-26T16:08:52.629Z,100240.60
2023-04-26T16:11:22.328Z,100242.27
2023-04-26T16:13:57.363Z,100243.16
2023-04-26T16:16:30.928Z,100247.16
2023-04-26T16:19:00.678Z,100246.02
2023-04-26T16:21:31.298Z,100244.02
2023-04-26T16:24:03.209Z,100248.02
2023-04-26T16:26:52.213Z,100250.08
2023-04-26T16:29:21.207Z,100249.40
2023-04-26T16:31:50.878Z,100250.30
2023-04-26T16:34:20.441Z,100251.46
2023-04-26T16:36:49.717Z,100252.46
2023-04-26T16:39:19.872Z,100254.77
2023-04-26T16:41:57.158Z,100261.30
2023-04-26T16:44:30.020Z,100258.25
2023-04-26T16:47:02.303Z,100258.90
2023-04-26T16:49:33.835Z,100260.45
2023-04-26T16:52:08.064Z,100260.52
2023-04-26T16:54:42.685Z,100264.31
2023-04-26T16:57:13.926Z,100265.10
2023-04-26T16:59:42.722Z,100265.45
2023-04-26T17:02:13.209Z,100272.23
2023-04-26T17:04:45.501Z,100268.52
2023-04-26T17:07:17.680Z,100276.45
2023-04-26T17:09:55.424Z,100276.94
2023-04-26T17:12:35.750Z,100284.21
2023-04-26T17:15:05.056Z,100290.95
2023-04-26T17:17:45.355Z,100291.70
2023-04-26T17:20:14.159Z,100281.55
2023-04-26T17:22:42.851Z,100289.09
2023-04-26T17:25:15.139Z,100287.73
2023-04-26T17:27:56.630Z,100292.68
2023-04-26T17:30:30.906Z,100297.27
2023-04-26T17:33:02.793Z,100294.95
2023-04-26T17:35:32.197Z,100298.95
2023-04-26T17:38:03.569Z,100305.32
2023-04-26T17:40:32.679Z,100306.35
2023-04-26T17:43:02.264Z,100305.64
2023-04-26T17:45:31.463Z,100308.41
2023-04-26T17:48:04.943Z,100310.70
2023-04-26T17:50:53.190Z,100310.77
2023-04-26T17:53:35.464Z,100312.48
2023-04-26T17:56:07.994Z,100315.35
2023-04-26T17:58:49.983Z,100320.85
2023-04-26T18:01:22.132Z,100325.92
2023-04-26T18:03:52.730Z,100323.20
2023-04-26T18:06:25.456Z,100320.92
2023-04-26T18:08:55.512Z,100323.19
2023-04-26T18:11:25.088Z,100323.86
2023-04-26T18:13:58.801Z,100322.45
2023-04-26T18:57:26.020Z,100352.30
2023-04-26T19:00:02.729Z,100351.42
2023-04-26T19:02:53.876Z,100355.30
2023-04-26T19:05:27.466Z,100359.73
2023-04-26T19:08:11.153Z,100363.52
2023-04-26T19:10:49.707Z,100367.39
2023-04-26T19:13:26.022Z,100368.90
2023-04-26T19:16:04.620Z,100368.52
2023-04-26T19:18:44.484Z,100372.73
2023-04-26T19:21:19.039Z,100378.80
2023-04-26T19:23:48.738Z,100379.51
2023-04-26T19:26:20.789Z,100378.16
2023-04-26T19:28:52.973Z,100377.41
2023-04-26T19:31:30.111Z,100377.98
2023-04-26T19:33:59.554Z,100371.80
2023-04-26T19:36:29.074Z,100374.68
2023-04-26T19:38:57.849Z,100376.96
2023-04-26T19:41:32.317Z,100370.79
2023-04-26T19:44:05.461Z,100370.45
2023-04-26T19:46:38.117Z,100372.86
2023-04-26T19:49:07.755Z,100375.90
2023-04-26T19:51:37.036Z,100370.86
2023-04-26T19:54:06.748Z,100371.12
2023-04-26T19:56:39.144Z,100371.61
2023-04-26T19:59:14.460Z,100370.29
2023-04-26T20:01:51.025Z,100372.38
2023-04-26T20:04:26.494Z,100372.20
2023-04-26T20:06:58.646Z,100378.20
2023-04-26T20:09:30.845Z,100378.19
2023-04-26T20:12:00.947Z,100376.16
2023-04-26T20:14:30.755Z,100379.46
2023-04-26T20:17:02.955Z,100379.03
2023-04-26T20:19:46.158Z,100377.27
2023-04-26T20:22:17.800Z,100382.88
2023-04-26T20:24:52.882Z,100382.46
2023-04-26T20:27:44.960Z,100384.48
2023-04-26T20:30:47.450Z,100384.03
2023-04-26T20:33:53.846Z,100389.48
2023-04-26T20:36:49.170Z,100386.80
2023-04-26T20:40:11.089Z,100390.98
2023-04-26T20:42:43.154Z,100389.30
2023-04-26T20:45:12.713Z,100390.95
2023-04-26T20:48:11.308Z,100390.77
2023-04-26T20:50:52.250Z,100392.65
2023-04-26T20:53:39.273Z,100397.73
2023-04-26T20:56:45.183Z,100396.26
2023-04-26T20:59:36.280Z,100392.27
2023-04-26T21:02:45.608Z,100391.81
2023-04-26T21:05:14.731Z,100396.19
2023-04-26T21:07:47.199Z,100393.54
2023-04-26T21:10:46.021Z,100396.20
2023-04-26T21:13:59.524Z,100398.23
2023-04-26T21:16:54.227Z,100398.88
2023-04-26T21:20:00.048Z,100401.56
2023-04-26T21:22:37.985Z,100403.23
2023-04-26T21:25:33.079Z,100409.81
2023-04-26T21:28:28.772Z,100410.36
2023-04-26T21:31:17.082Z,100412.30
2023-04-26T21:33:52.707Z,100413.94
2023-04-26T21:37:27.306Z,100418.60
2023-04-26T21:40:05.311Z,100421.56
2023-04-26T21:42:34.229Z,100418.74
2023-04-26T21:45:23.701Z,100421.38
2023-04-26T21:47:53.147Z,100421.58
2023-04-26T21:50:33.260Z,100414.33
2023-04-26T21:53:29.207Z,100422.60
2023-04-26T21:56:16.048Z,100425.71
2023-04-26T21:59:30.563Z,100418.33
2023-04-26T22:02:03.754Z,100431.01
2023-04-26T22:04:35.195Z,100430.88
2023-04-26T22:07:11.256Z,100435.17
2023-04-26T22:09:39.935Z,100437.88
2023-04-26T22:12:19.064Z,100445.35
2023-04-26T22:14:56.063Z,100445.13
2023-04-26T22:17:34.479Z,100446.74
2023-04-26T22:20:17.498Z,100447.88
2023-04-26T22:22:53.941Z,100446.15
2023-04-26T22:25:35.383Z,100450.12
2023-04-26T22:28:07.508Z,100448.49
2023-04-26T22:30:44.172Z,100449.92
2023-04-26T22:33:18.286Z,100448.36
2023-04-26T22:35:59.782Z,100447.92
2023-04-26T22:38:39.942Z,100445.23
2023-04-26T22:41:28.988Z,100447.55
2023-04-26T22:44:04.039Z,100447.11
2023-04-26T22:46:41.017Z,100449.10
2023-04-26T22:49:10.256Z,100452.61
2023-04-26T22:52:04.188Z,100445.60
2023-04-26T22:54:43.844Z,100452.71
2023-04-26T22:57:15.893Z,100456.34
2023-04-26T22:59:45.216Z,100458.10
2023-04-26T23:02:21.066Z,100458.77
2023-04-26T23:04:58.048Z,100457.98
2023-04-26T23:07:29.786Z,100452.44
2023-04-26T23:10:05.150Z,100460.75
2023-04-26T23:12:37.705Z,100461.06
2023-04-26T23:15:18.594Z,100460.77
2023-04-26T23:17:50.796Z,100461.69
2023-04-26T23:20:23.053Z,100461.46
2023-04-26T23:22:54.869Z,100462.87
2023-04-26T23:25:29.392Z,100463.77
2023-04-26T23:28:06.987Z,100463.90
2023-04-26T23:30:56.266Z,100464.48
2023-04-26T23:33:25.783Z,100466.34
2023-04-26T23:36:13.319Z,100465.36
2023-04-26T23:38:47.613Z,100465.67
2023-04-26T23:41:32.999Z,100467.01
2023-04-26T23:44:31.360Z,100467.67
2023-04-26T23:47:11.621Z,100470.05
2023-04-26T23:49:50.359Z,100471.48
2023-04-26T23:52:44.940Z,100469.66
2023-04-26T23:55:23.969Z,100472.07
2023-04-26T23:57:55.760Z,100470.25
